LPCS Informações do Aeroporto

Informações da Pista
Pista 17 Comprimento 3904 ft Largura 98 ft
Elevação 326 ft Limite 0 ft Heading 164
Pista 35 Comprimento 3904 ft Largura 98 ft
Elevação 287 ft Limite 0 ft Heading 344
Frequências do Aeroporto
Tipo GND Nome GND Frequência 121.825 MHZ
Tipo TWR Nome TWR Frequência 120.3 MHZ
Navaids do Aeroporto
Tipo NDB Nome Cascais Frequência 359 KHZ
Tipo VOR-DME Nome Cascais Frequência 114300 KHZ
Informações meteorológicas do aeroporto e NOTAM
ADDS - METARS form results

(1757 UTC 18 March 2019)
Data provider http://aviationweather.gov/metar/data/
 
METAR text: LPCS 181730Z 35018KT CAVOK 16/08 Q1023
Conditions at: LPCS (CASCAIS , PT) observed 1730 UTC 18 March 2019
Temperature: 16.0°C (61°F)
Dewpoint: 8.0°C (46°F) [RH = 59%]
Pressure (altimeter): 30.21 inches Hg (1023.0 mb)
Winds: from the N (350 degrees) at 21 MPH (18 knots; 9.3 m/s)
Visibility: 6 or more miles (10+ km)
Ceiling: ceiling and visibility are OK
Clouds: unknown
Weather: no significant weather observed at this time

METAR text: LPCS 181700Z 35017KT CAVOK 17/08 Q1022
Conditions at: LPCS (CASCAIS , PT) observed 1700 UTC 18 March 2019
Temperature: 17.0°C (63°F)
Dewpoint: 8.0°C (46°F) [RH = 55%]
Pressure (altimeter): 30.18 inches Hg (1022.0 mb)
Winds: from the N (350 degrees) at 20 MPH (17 knots; 8.7 m/s)
Visibility: 6 or more miles (10+ km)
Ceiling: ceiling and visibility are OK
Clouds: unknown
Weather: no significant weather observed at this time

Forecast for: LPCS (CASCAIS , PT)
Text: TAF LPCS 181400Z 1815/1824 05010KT CAVOK
Forecast period: 1500 UTC 18 March 2019 to 0000 UTC 19 March 2019
Forecast type: FROM: standard forecast or significant change
Winds: from the NE (50 degrees) at 12 MPH (10 knots; 5.1 m/s)
Visibility: 6 or more miles 10+ km)
Ceiling: unknown
Clouds: missing
Weather: NSW  (no significant weather)
Text: BECMG 1815/1818 35015KT
Forecast period: 1500 to 2100 UTC 18 March 2019
Forecast type: BECOMING: Conditions expected to become as follows by 1800 UTC 18 March 2019
Winds: from the N (350 degrees) at 17 MPH (15 knots; 7.7 m/s)
Visibility: 6 or more miles 10+ km)
Ceiling: unknown
Clouds: missing
Weather: NSW  (no significant weather)
Text: BECMG 1821/1823 03010KT
Forecast period: 2100 UTC 18 March 2019 to 0000 UTC 19 March 2019
Forecast type: BECOMING: Conditions expected to become as follows by 2300 UTC 18 March 2019
Winds: from the NNE (30 degrees) at 12 MPH (10 knots; 5.1 m/s)
Visibility: 6 or more miles 10+ km)
Ceiling: unknown
Clouds: missing
Weather: NSW  (no significant weather)